world map with UAKD marked

UAKD - Airport

This information may not be accurate or current and is not valid for navigation or flight planning. No warranty of fitness for any purpose is made or implied.

flag of Kazakhstan

Donate via PayPal

Additional information is available on the NEW Great Circle Mapper

Location
City:  Zhezkazgan, Qaraghandy, Kazakhstan
Near (Alt.):Dzezkazgan
Name:Zhezkazgan Airport
ICAO / IATA:UAKD / DZN

Details
Type:Airport (Aerodrome, Airfield)
Use:Public/Civil
Latitude:47°42'32"N (47.708889)
Longitude:67°44'21"E (67.739167)
Elevation:1250 ft (381 m)
Runways:1
Longest:8530 × 138 ft (2600 × 42 m)

Weather
METAR:UAKD  161230Z 07004MPS 9999 NSC M07/M11 Q1039 R04/0///65 NOSIG RMK QFE744/0993

Related Locations
Nearby:
Farthest:NEMO: 11920 mi / 19183 km
Pacific Ocean [Oceanic Pole of Inaccessibility (Point Nemo)]

Find:

   beyond  
but within

Other Information
Maps:
Sources:

  


 


Great Circle Mapper   Great Circle Mapper
Great Circle Mapper FAQ   Great Circle Mapper FAQ
  Karl's Home Page
KLSē   KLSē Home
   GC on Facebook
Airlines of the World   Airlines of the World
Donate via PayPal


Copyright © 2004-2018, Karl L. Swartz. All rights reserved.
All trademarks mentioned herein belong to their respective owners.

Please see credits for attribution and copyright information.

Karl Swartz <karl@kls2.com>
  Powered by FreeBSD
Valid HTML 4.01!
Labeled with ICRA
hCard Microformat
Geo Microformat